createdAt,value
2022-08-27T00:00:20.072Z,7.88
2022-08-27T00:02:49.404Z,12.18
2022-08-27T00:05:19.919Z,10.18
2022-08-27T00:07:50.611Z,8.35
2022-08-27T00:10:26.995Z,9.70
2022-08-27T00:12:56.805Z,9.35
2022-08-27T00:15:25.746Z,10.10
2022-08-27T00:17:54.559Z,9.05
2022-08-27T00:20:27.280Z,8.48
2022-08-27T00:22:58.133Z,9.50
2022-08-27T00:25:28.457Z,12.73
2022-08-27T00:27:57.422Z,12.70
2022-08-27T00:30:26.383Z,10.50
2022-08-27T00:32:57.290Z,9.10
2022-08-27T00:35:25.789Z,13.65
2022-08-27T00:37:55.480Z,11.40
2022-08-27T00:40:25.462Z,9.05
2022-08-27T00:42:54.994Z,10.23
2022-08-27T00:45:25.861Z,9.00
2022-08-27T00:47:57.877Z,8.90
2022-08-27T00:53:03.990Z,7.80
2022-08-27T00:55:37.733Z,8.77
2022-08-27T00:58:11.379Z,10.13
2022-08-27T01:00:40.419Z,10.48
2022-08-27T01:03:09.921Z,8.98
2022-08-27T01:05:40.237Z,13.07
2022-08-27T01:08:13.011Z,13.18
2022-08-27T01:10:44.418Z,10.25
2022-08-27T01:13:15.690Z,14.23
2022-08-27T01:15:45.758Z,10.18
2022-08-27T01:18:16.326Z,11.23
2022-08-27T01:20:51.925Z,10.63
2022-08-27T01:23:28.868Z,10.80
2022-08-27T01:26:00.041Z,9.05
2022-08-27T01:28:35.792Z,10.73
2022-08-27T01:31:09.068Z,10.23
2022-08-27T01:33:39.815Z,11.50
2022-08-27T01:36:09.411Z,14.38
2022-08-27T01:38:37.945Z,12.65
2022-08-27T01:41:08.078Z,8.98
2022-08-27T01:43:36.754Z,9.75
2022-08-27T01:46:05.658Z,9.15
2022-08-27T01:48:35.002Z,9.60
2022-08-27T01:51:04.245Z,8.43
2022-08-27T01:53:33.779Z,10.10
2022-08-27T01:56:02.707Z,10.20
2022-08-27T01:58:33.971Z,10.95
2022-08-27T02:01:06.496Z,10.45
2022-08-27T02:03:37.479Z,12.85
2022-08-27T02:06:07.853Z,9.90
2022-08-27T02:08:36.989Z,12.55
2022-08-27T02:11:06.675Z,12.25
2022-08-27T02:13:39.399Z,11.82
2022-08-27T02:16:08.147Z,12.32
2022-08-27T02:18:38.642Z,10.75
2022-08-27T02:21:10.734Z,9.75
2022-08-27T02:23:39.905Z,10.85
2022-08-27T02:26:08.941Z,11.32
2022-08-27T02:28:39.228Z,8.85
2022-08-27T02:31:07.770Z,9.43
2022-08-27T02:33:36.392Z,11.20
2022-08-27T02:36:06.175Z,9.02
2022-08-27T02:38:34.977Z,12.90
2022-08-27T02:41:03.577Z,11.82
2022-08-27T02:43:32.781Z,14.10
2022-08-27T02:46:05.797Z,10.50
2022-08-27T02:48:37.439Z,11.00
2022-08-27T02:51:09.255Z,10.75
2022-08-27T02:53:38.122Z,10.63
2022-08-27T02:56:07.058Z,9.98
2022-08-27T02:58:35.950Z,10.95
2022-08-27T03:01:06.370Z,11.00
2022-08-27T03:03:40.373Z,13.43
2022-08-27T03:06:10.198Z,13.90
2022-08-27T03:08:53.027Z,9.18
2022-08-27T03:11:23.447Z,10.98
2022-08-27T03:13:53.395Z,11.88
2022-08-27T03:16:23.437Z,11.70
2022-08-27T03:18:51.840Z,9.70
2022-08-27T03:21:22.585Z,10.73
2022-08-27T03:23:52.350Z,12.35
2022-08-27T03:26:21.664Z,9.63
2022-08-27T03:28:50.611Z,9.43
2022-08-27T03:31:27.198Z,11.07
2022-08-27T03:33:59.605Z,12.40
2022-08-27T03:36:31.589Z,10.65
2022-08-27T03:39:00.804Z,10.57
2022-08-27T03:41:39.962Z,10.73
2022-08-27T03:44:21.454Z,11.30
2022-08-27T03:46:50.828Z,17.65
2022-08-27T03:49:25.079Z,10.45
2022-08-27T03:51:54.931Z,10.20
2022-08-27T03:54:29.151Z,12.63
2022-08-27T03:56:58.393Z,10.15
2022-08-27T03:59:27.218Z,13.73
2022-08-27T04:01:55.819Z,9.75
2022-08-27T04:04:26.401Z,11.50
2022-08-27T04:06:57.850Z,11.00
2022-08-27T04:11:56.109Z,10.85
2022-08-27T04:14:26.915Z,12.02
2022-08-27T04:19:30.519Z,12.23
2022-08-27T04:22:03.736Z,11.82
2022-08-27T04:24:34.141Z,11.25
2022-08-27T04:27:04.771Z,12.13
2022-08-27T04:29:34.361Z,11.85
2022-08-27T04:32:04.674Z,10.15
2022-08-27T04:34:35.287Z,11.63
2022-08-27T04:37:05.668Z,10.95
2022-08-27T04:39:35.716Z,10.53
2022-08-27T04:42:04.876Z,11.27
2022-08-27T04:44:34.772Z,12.82
2022-08-27T04:47:06.194Z,9.88
2022-08-27T04:49:37.508Z,12.85
2022-08-27T04:53:46.228Z,13.50
2022-08-27T04:56:17.202Z,10.60
2022-08-27T04:58:46.365Z,13.27
2022-08-27T05:01:18.307Z,11.07
2022-08-27T05:03:47.314Z,10.00
2022-08-27T05:06:16.281Z,11.45
2022-08-27T05:08:46.506Z,11.23
2022-08-27T05:11:17.316Z,9.32
2022-08-27T05:13:47.341Z,10.15
2022-08-27T05:16:18.444Z,12.10
2022-08-27T05:18:48.766Z,10.80
2022-08-27T05:21:19.845Z,9.32
2022-08-27T05:23:51.143Z,9.43
2022-08-27T05:26:20.426Z,8.88
2022-08-27T05:28:49.336Z,11.27
2022-08-27T05:31:19.730Z,10.90
2022-08-27T05:33:49.533Z,8.77
2022-08-27T05:36:21.869Z,12.82
2022-08-27T05:38:51.979Z,9.45
2022-08-27T05:41:25.293Z,8.88
2022-08-27T05:44:07.715Z,15.02
2022-08-27T05:46:49.190Z,13.70
2022-08-27T05:49:18.648Z,14.85
2022-08-27T05:51:47.229Z,14.35
2022-08-27T05:54:20.146Z,13.10
2022-08-27T05:56:52.237Z,15.10
2022-08-27T05:59:39.716Z,15.25
2022-08-27T06:02:09.631Z,13.43
2022-08-27T06:04:39.047Z,12.77
2022-08-27T06:07:09.772Z,17.67
2022-08-27T06:09:40.528Z,13.90
2022-08-27T06:12:09.866Z,15.45
2022-08-27T06:14:38.998Z,13.73
2022-08-27T06:17:08.919Z,15.15
2022-08-27T06:19:37.942Z,12.60
2022-08-27T06:22:10.106Z,12.32
2022-08-27T06:24:42.350Z,19.60
2022-08-27T06:27:13.695Z,11.15
2022-08-27T06:29:43.125Z,22.02
2022-08-27T06:32:13.321Z,14.10
2022-08-27T06:34:42.503Z,14.05
2022-08-27T06:37:11.080Z,16.65
2022-08-27T06:39:41.859Z,11.63
2022-08-27T06:42:12.788Z,13.18
2022-08-27T06:44:41.441Z,13.13
2022-08-27T06:47:10.783Z,14.10
2022-08-27T06:49:41.439Z,12.50
2022-08-27T06:52:12.437Z,15.90
2022-08-27T06:54:42.442Z,13.57
2022-08-27T06:57:11.259Z,15.45
2022-08-27T06:59:40.003Z,15.43
2022-08-27T07:02:09.208Z,13.13
2022-08-27T07:04:40.952Z,12.95
2022-08-27T07:07:13.920Z,18.02
2022-08-27T07:09:58.205Z,14.15
2022-08-27T07:12:30.766Z,10.55
2022-08-27T07:14:59.412Z,12.00
2022-08-27T07:17:28.145Z,11.57
2022-08-27T07:19:56.939Z,13.77
2022-08-27T07:22:25.668Z,15.30
2022-08-27T07:24:54.206Z,13.05
2022-08-27T07:27:24.369Z,10.38
2022-08-27T07:29:53.270Z,10.98
2022-08-27T07:32:21.986Z,11.38
2022-08-27T07:34:59.748Z,12.88
2022-08-27T07:37:35.284Z,12.02
2022-08-27T07:40:06.161Z,13.68
2022-08-27T07:42:54.355Z,10.43
2022-08-27T07:45:23.189Z,11.98
2022-08-27T07:47:52.066Z,11.55
2022-08-27T07:50:21.819Z,14.63
2022-08-27T07:52:50.639Z,11.50
2022-08-27T07:55:20.339Z,13.50
2022-08-27T07:57:51.463Z,12.07
2022-08-27T08:00:21.955Z,11.07
2022-08-27T08:02:51.182Z,9.85
2022-08-27T08:05:20.107Z,12.50
2022-08-27T08:07:48.731Z,11.38
2022-08-27T08:10:17.587Z,13.40
2022-08-27T08:12:48.271Z,10.43
2022-08-27T08:15:19.013Z,12.52
2022-08-27T08:17:48.477Z,13.85
2022-08-27T08:20:27.491Z,13.35
2022-08-27T08:23:09.859Z,9.80
2022-08-27T08:25:39.493Z,9.60
2022-08-27T08:28:11.971Z,15.05
2022-08-27T08:30:45.074Z,10.45
2022-08-27T08:33:14.397Z,10.60
2022-08-27T08:35:43.112Z,9.70
2022-08-27T08:38:13.417Z,14.38
2022-08-27T08:40:44.889Z,9.95
2022-08-27T08:43:26.399Z,12.27
2022-08-27T08:45:59.713Z,14.85
2022-08-27T08:48:32.315Z,13.77
2022-08-27T08:51:06.965Z,10.77
2022-08-27T08:53:44.216Z,10.75
2022-08-27T08:56:21.277Z,11.25
2022-08-27T08:58:54.270Z,9.93
2022-08-27T09:01:27.988Z,9.98
2022-08-27T09:03:59.461Z,12.27
2022-08-27T09:06:41.231Z,15.50
2022-08-27T09:09:21.912Z,13.25
2022-08-27T09:12:01.121Z,12.20
2022-08-27T09:14:37.703Z,12.30
2022-08-27T09:17:11.475Z,16.48
2022-08-27T09:19:41.588Z,13.07
2022-08-27T09:22:21.231Z,13.40
2022-08-27T09:24:56.938Z,11.75
2022-08-27T09:27:26.639Z,11.60
2022-08-27T09:29:59.431Z,11.93
2022-08-27T09:32:34.703Z,9.75
2022-08-27T09:35:06.234Z,13.10
2022-08-27T09:37:42.164Z,12.32
2022-08-27T09:40:23.256Z,11.30
2022-08-27T09:42:54.745Z,12.38
2022-08-27T09:45:26.131Z,10.65
2022-08-27T09:48:04.410Z,10.75
2022-08-27T09:50:43.529Z,13.98
2022-08-27T09:53:21.509Z,10.82
2022-08-27T09:55:55.925Z,10.35
2022-08-27T09:58:30.054Z,13.20
2022-08-27T10:01:04.289Z,9.73
2022-08-27T10:03:35.373Z,8.73
2022-08-27T10:06:09.381Z,9.45
2022-08-27T10:08:42.430Z,12.13
2022-08-27T10:11:16.523Z,15.23
2022-08-27T10:13:53.296Z,14.43
2022-08-27T10:16:55.377Z,12.35
2022-08-27T10:19:44.178Z,10.95
2022-08-27T10:22:19.697Z,8.98
2022-08-27T10:25:04.165Z,9.80
2022-08-27T10:27:40.024Z,11.82
2022-08-27T10:30:11.977Z,11.13
2022-08-27T10:32:57.932Z,11.25
2022-08-27T10:35:47.972Z,8.00
2022-08-27T10:38:26.345Z,11.00
2022-08-27T10:41:03.286Z,14.80
2022-08-27T10:43:52.621Z,14.20
2022-08-27T10:46:40.515Z,13.93
2022-08-27T10:49:28.412Z,10.90
2022-08-27T10:52:08.620Z,14.13
2022-08-27T10:54:44.759Z,12.02
2022-08-27T10:57:40.007Z,9.68
2022-08-27T11:00:16.698Z,9.98
2022-08-27T11:02:50.013Z,18.10
2022-08-27T11:05:25.776Z,13.45
2022-08-27T11:08:01.591Z,9.00
2022-08-27T11:10:32.308Z,10.93
2022-08-27T11:13:08.457Z,13.70
2022-08-27T11:15:40.290Z,13.18
2022-08-27T11:18:17.193Z,14.65
2022-08-27T11:20:53.985Z,10.70
2022-08-27T11:23:29.269Z,16.70
2022-08-27T11:26:02.660Z,9.35
2022-08-27T11:28:38.096Z,10.40
2022-08-27T11:31:14.936Z,14.68
2022-08-27T11:33:54.262Z,13.35
2022-08-27T11:36:56.381Z,8.63
2022-08-27T11:39:41.589Z,7.85
2022-08-27T11:42:14.751Z,12.10
2022-08-27T11:44:48.945Z,10.93
2022-08-27T11:47:22.416Z,16.00
2022-08-27T11:49:57.739Z,10.30
2022-08-27T11:52:29.805Z,15.85
2022-08-27T11:55:15.634Z,13.05
2022-08-27T11:57:45.329Z,10.88
2022-08-27T12:00:21.144Z,10.05
2022-08-27T12:03:04.561Z,11.25
2022-08-27T12:05:43.328Z,13.35
2022-08-27T12:08:27.116Z,9.93
2022-08-27T12:11:17.034Z,11.10
2022-08-27T12:13:57.380Z,14.98
2022-08-27T12:16:35.915Z,11.88
2022-08-27T12:19:18.806Z,12.32
2022-08-27T12:21:58.179Z,18.63
2022-08-27T12:24:42.547Z,13.00
2022-08-27T12:27:34.929Z,15.55
2022-08-27T12:30:22.209Z,9.98
2022-08-27T12:32:52.942Z,9.50
2022-08-27T12:35:29.953Z,13.63
2022-08-27T12:38:12.011Z,10.50
2022-08-27T12:40:47.459Z,13.02
2022-08-27T12:43:21.682Z,12.40
2022-08-27T12:45:53.972Z,13.15
2022-08-27T12:48:30.028Z,15.98
2022-08-27T12:51:04.369Z,12.18
2022-08-27T12:53:45.953Z,9.32
2022-08-27T12:56:40.798Z,29.58
2022-08-27T12:59:39.939Z,25.40
2022-08-27T13:02:27.256Z,16.50
2022-08-27T13:04:56.662Z,12.43
2022-08-27T13:07:33.023Z,12.40
2022-08-27T13:10:13.482Z,12.77
2022-08-27T13:12:44.540Z,13.90
2022-08-27T13:15:17.291Z,13.60
2022-08-27T13:17:48.341Z,17.70
2022-08-27T13:22:47.509Z,13.40
2022-08-27T13:25:29.070Z,15.10
2022-08-27T13:28:08.535Z,13.25
2022-08-27T13:30:42.558Z,16.02
2022-08-27T13:33:19.068Z,13.00
2022-08-27T13:35:48.440Z,15.85
2022-08-27T13:38:19.776Z,18.20
2022-08-27T13:40:59.849Z,12.38
2022-08-27T13:43:37.357Z,14.00
2022-08-27T13:46:13.438Z,19.42
2022-08-27T13:48:43.378Z,11.77
2022-08-27T13:51:14.937Z,11.43
2022-08-27T13:54:07.611Z,16.88
2022-08-27T13:56:39.187Z,11.85
2022-08-27T13:59:14.528Z,10.73
2022-08-27T14:01:58.326Z,15.48
2022-08-27T14:04:36.965Z,24.92
2022-08-27T14:07:13.991Z,12.48
2022-08-27T14:09:51.253Z,14.93
2022-08-27T14:12:32.981Z,13.95
2022-08-27T14:15:20.049Z,13.30
2022-08-27T14:17:52.101Z,9.85
2022-08-27T14:22:52.697Z,12.63
2022-08-27T14:25:30.690Z,12.48
2022-08-27T14:28:00.013Z,11.70
2022-08-27T14:30:30.126Z,12.93
2022-08-27T14:33:02.895Z,14.50
2022-08-27T14:35:37.338Z,14.20
2022-08-27T14:38:14.587Z,16.25
2022-08-27T14:40:44.837Z,11.75
2022-08-27T14:45:50.974Z,12.57
2022-08-27T14:48:28.537Z,15.65
2022-08-27T14:51:00.174Z,15.10
2022-08-27T14:53:29.639Z,11.30
2022-08-27T14:56:02.066Z,10.60
2022-08-27T14:58:31.829Z,13.07
2022-08-27T15:01:00.839Z,10.63
2022-08-27T15:03:32.920Z,18.98
2022-08-27T15:06:01.810Z,11.82
2022-08-27T15:08:32.294Z,12.70
2022-08-27T15:11:03.625Z,15.30
2022-08-27T15:13:34.058Z,12.00
2022-08-27T15:16:08.078Z,14.93
2022-08-27T15:18:38.844Z,10.98
2022-08-27T15:21:07.890Z,13.38
2022-08-27T15:23:37.571Z,13.18
2022-08-27T15:26:07.303Z,12.02
2022-08-27T15:28:37.557Z,10.32
2022-08-27T15:31:06.948Z,11.50
2022-08-27T15:33:37.328Z,12.75
2022-08-27T15:36:12.116Z,9.88
2022-08-27T15:38:41.570Z,20.08
2022-08-27T15:41:11.669Z,12.82
2022-08-27T15:43:41.276Z,11.35
2022-08-27T15:46:11.511Z,11.07
2022-08-27T15:48:40.206Z,11.35
2022-08-27T15:51:13.875Z,13.10
2022-08-27T15:53:44.395Z,11.88
2022-08-27T15:56:13.005Z,20.35
2022-08-27T15:58:47.816Z,16.02
2022-08-27T16:01:27.090Z,12.80
2022-08-27T16:03:57.641Z,11.00
2022-08-27T16:06:30.581Z,13.32
2022-08-27T16:09:01.795Z,19.75
2022-08-27T16:11:30.630Z,24.90
2022-08-27T16:13:59.631Z,16.65
2022-08-27T16:16:32.369Z,17.35
2022-08-27T16:19:02.716Z,18.48
2022-08-27T16:21:35.190Z,13.30
2022-08-27T16:24:05.710Z,14.43
2022-08-27T16:26:35.664Z,13.52
2022-08-27T16:29:05.777Z,12.88
2022-08-27T16:31:35.261Z,11.55
2022-08-27T16:34:15.174Z,11.98
2022-08-27T16:36:47.219Z,12.65
2022-08-27T16:41:46.215Z,18.48
2022-08-27T16:44:15.313Z,11.45
2022-08-27T16:46:43.943Z,11.85
2022-08-27T16:49:30.108Z,13.27
2022-08-27T16:52:00.538Z,14.32
2022-08-27T16:54:29.574Z,13.10
2022-08-27T16:56:58.236Z,15.70
2022-08-27T16:59:27.247Z,13.50
2022-08-27T17:01:57.565Z,13.35
2022-08-27T17:04:36.725Z,10.18
2022-08-27T17:09:40.340Z,17.40
2022-08-27T17:12:13.872Z,14.05
2022-08-27T17:14:45.747Z,37.97
2022-08-27T17:17:14.393Z,20.73
2022-08-27T17:19:43.037Z,20.73
2022-08-27T17:22:15.002Z,15.20
2022-08-27T17:24:44.525Z,14.15
2022-08-27T17:27:13.118Z,23.02
2022-08-27T17:29:41.592Z,19.95
2022-08-27T17:32:11.089Z,18.23
2022-08-27T17:34:40.404Z,14.68
2022-08-27T17:37:09.026Z,16.85
2022-08-27T17:39:38.973Z,14.35
2022-08-27T17:42:09.537Z,10.60
2022-08-27T17:44:39.130Z,13.65
2022-08-27T17:47:10.560Z,19.13
2022-08-27T17:49:41.249Z,17.15
2022-08-27T17:52:15.307Z,13.55
2022-08-27T17:54:47.551Z,15.85
2022-08-27T17:57:18.816Z,17.65
2022-08-27T17:59:48.251Z,18.13
2022-08-27T18:02:22.038Z,15.50
2022-08-27T18:04:52.261Z,17.23
2022-08-27T18:07:20.982Z,11.95
2022-08-27T18:09:51.646Z,18.38
2022-08-27T18:12:22.903Z,11.68
2022-08-27T18:14:56.097Z,9.93
2022-08-27T18:17:24.924Z,9.02
2022-08-27T18:19:53.515Z,10.32
2022-08-27T18:22:22.054Z,9.30
2022-08-27T18:24:52.381Z,8.75
2022-08-27T18:27:24.526Z,14.98
2022-08-27T18:29:53.491Z,11.30
2022-08-27T18:32:25.713Z,16.50
2022-08-27T18:34:56.978Z,12.15
2022-08-27T18:37:26.227Z,10.88
2022-08-27T18:39:56.545Z,9.60
2022-08-27T18:42:25.614Z,9.27
2022-08-27T18:44:54.379Z,16.40
2022-08-27T18:47:24.921Z,12.60
2022-08-27T18:49:53.420Z,13.65
2022-08-27T18:52:25.363Z,17.17
2022-08-27T18:54:54.475Z,23.42
2022-08-27T18:57:24.934Z,27.83
2022-08-27T18:59:54.164Z,27.40
2022-08-27T19:02:23.532Z,24.15
2022-08-27T19:04:52.452Z,19.80
2022-08-27T19:07:21.357Z,18.00
2022-08-27T19:09:50.317Z,39.15
2022-08-27T19:12:19.208Z,42.17
2022-08-27T19:14:49.681Z,31.38
2022-08-27T19:17:26.575Z,25.80
2022-08-27T19:19:55.993Z,25.02
2022-08-27T19:22:25.211Z,34.88
2022-08-27T19:24:55.458Z,51.28
2022-08-27T19:27:26.573Z,48.92
2022-08-27T19:29:57.241Z,42.38
2022-08-27T19:32:26.971Z,27.88
2022-08-27T19:35:03.489Z,22.42
2022-08-27T19:37:35.078Z,17.15
2022-08-27T19:42:33.271Z,12.48
2022-08-27T19:45:03.326Z,10.50
2022-08-27T19:47:33.004Z,11.23
2022-08-27T19:50:01.626Z,11.23
2022-08-27T19:52:31.138Z,13.52
2022-08-27T19:55:15.030Z,11.90
2022-08-27T19:57:44.400Z,13.30
2022-08-27T20:00:17.067Z,11.20
2022-08-27T20:02:46.299Z,18.40
2022-08-27T20:05:19.225Z,24.83
2022-08-27T20:07:48.976Z,29.98
2022-08-27T20:10:19.619Z,20.80
2022-08-27T20:12:50.944Z,21.35
2022-08-27T20:15:23.574Z,14.88
2022-08-27T20:17:54.557Z,10.13
2022-08-27T20:20:25.527Z,13.45
2022-08-27T20:22:55.399Z,11.68
2022-08-27T20:25:25.195Z,11.73
2022-08-27T20:27:54.458Z,10.98
2022-08-27T20:30:28.216Z,15.30
2022-08-27T20:32:57.416Z,13.75
2022-08-27T20:35:26.453Z,13.57
2022-08-27T20:37:55.743Z,13.00
2022-08-27T20:40:26.733Z,13.02
2022-08-27T20:42:55.936Z,9.77
2022-08-27T20:45:26.079Z,12.23
2022-08-27T20:47:59.461Z,10.40
2022-08-27T20:50:27.880Z,12.35
2022-08-27T20:52:59.305Z,12.20
2022-08-27T20:55:28.763Z,13.52
2022-08-27T20:58:15.431Z,9.63
2022-08-27T21:00:46.323Z,13.40
2022-08-27T21:03:16.465Z,9.23
2022-08-27T21:05:49.267Z,10.30
2022-08-27T21:08:20.390Z,9.10
2022-08-27T21:10:51.969Z,12.40
2022-08-27T21:13:21.697Z,13.18
2022-08-27T21:15:55.534Z,10.20
2022-08-27T21:18:29.789Z,9.48
2022-08-27T21:20:59.655Z,10.68
2022-08-27T21:23:30.920Z,7.60
2022-08-27T21:26:03.132Z,9.82
2022-08-27T21:28:31.670Z,11.55
2022-08-27T21:31:02.467Z,9.25
2022-08-27T21:33:34.103Z,12.65
2022-08-27T21:36:12.369Z,8.52
2022-08-27T21:38:41.454Z,9.43
2022-08-27T21:41:11.302Z,7.32
2022-08-27T21:43:39.646Z,10.15
2022-08-27T21:46:10.393Z,14.82
2022-08-27T21:48:39.602Z,10.07
2022-08-27T21:51:10.305Z,10.55
2022-08-27T21:53:39.464Z,11.90
2022-08-27T21:56:09.529Z,6.72
2022-08-27T21:58:38.466Z,6.88
2022-08-27T22:01:14.634Z,10.93
2022-08-27T22:03:49.369Z,8.15
2022-08-27T22:06:23.167Z,7.47
2022-08-27T22:08:53.582Z,15.50
2022-08-27T22:11:24.599Z,8.18
2022-08-27T22:13:53.839Z,8.45
2022-08-27T22:16:23.890Z,8.15
2022-08-27T22:18:55.008Z,11.40
2022-08-27T22:21:24.509Z,7.38
2022-08-27T22:23:54.477Z,8.25
2022-08-27T22:26:23.446Z,12.15
2022-08-27T22:28:52.164Z,9.80
2022-08-27T22:31:21.274Z,8.75
2022-08-27T22:33:51.617Z,7.75
2022-08-27T22:36:20.199Z,10.20
2022-08-27T22:38:49.081Z,10.90
2022-08-27T22:41:18.635Z,7.47
2022-08-27T22:43:48.199Z,9.88
2022-08-27T22:46:16.729Z,12.13
2022-08-27T22:48:45.241Z,8.18
2022-08-27T22:51:15.159Z,9.00
2022-08-27T22:53:44.331Z,12.80
2022-08-27T22:56:12.765Z,13.93
2022-08-27T22:58:45.835Z,8.00
2022-08-27T23:01:15.675Z,10.80
2022-08-27T23:03:44.880Z,12.77
2022-08-27T23:06:14.887Z,10.77
2022-08-27T23:08:43.258Z,10.63
2022-08-27T23:11:12.530Z,10.35
2022-08-27T23:13:41.600Z,11.40
2022-08-27T23:16:10.416Z,11.15
2022-08-27T23:18:40.818Z,14.82
2022-08-27T23:21:10.119Z,16.23
2022-08-27T23:23:40.284Z,22.25
2022-08-27T23:26:26.642Z,15.02
2022-08-27T23:28:56.436Z,23.42
2022-08-27T23:31:26.678Z,23.35
2022-08-27T23:33:56.283Z,14.90
2022-08-27T23:36:25.476Z,12.48
2022-08-27T23:38:55.454Z,14.20
2022-08-27T23:41:24.491Z,12.90
2022-08-27T23:43:54.176Z,8.23
2022-08-27T23:46:22.901Z,11.98
2022-08-27T23:48:51.550Z,10.43
2022-08-27T23:51:20.153Z,8.15
2022-08-27T23:53:50.314Z,9.85
2022-08-27T23:56:20.519Z,9.05
2022-08-27T23:58:56.683Z,10.23
